Richmond, IL (60071)

12:15 PM CDT on April 30, 2017 (GMT -0500)
Sunset Ridge | | Change Station

Elev 873 ft 42.49 °N, 88.30 °W | Updated 5 seconds ago

Rain
Rain
42.7 °F
Feels Like 38 °F
N
8.0
Wind Variable Wind from NNE

Today
High -- | Low -- °F
--% Chance of Precip.
Yesterday
High -- | Low -- °F
Precip. -- in
Pressure 29.89 in
Visibility 3.0 miles
Clouds Mostly Cloudy 600 ft
Overcast 1000 ft
Windchill 38 °F
Dew Point 41 °F
Humidity 95%
Rainfall 0.23 in
Snow Depth Not available.
5:49 AM 7:52 PM
Waxing Crescent, 24% visible
METAR KBUU 301655Z AUTO 06011G16KT 3SM DZ BKN006 OVC010 09/09 A2989 RMK AO2 P0002 T00850085
Pressure 29.89 in
Visibility 3.0 miles
Clouds Mostly Cloudy 600 ft
Overcast 1000 ft
Windchill 38 °F
Dew Point 41 °F
Humidity 95%
Rainfall 0.23 in
Snow Depth Not available.
5:49 AM 7:52 PM
Waxing Crescent, 24% visible
METAR KBUU 301655Z AUTO 06011G16KT 3SM DZ BKN006 OVC010 09/09 A2989 RMK AO2 P0002 T00850085

Get Severe Weather Alerts

Thanks for signing up!

Be on the lookout for a verification email in your inbox.

You'll start receiving the daily forecast at 8 AM.

×

10-Day Weather Forecast

Almanac

Astronomy

Apr. 30, 2017 Rise Set
Actual Time
Civil Twilight
Nautical Twilight
Astronomical Twilight
Moon
Length of Visible Light
Length of Day
Tomorrow will be .
, % of the Moon is Illuminated

Today's Extremes

State Highs State Lows

Community

WunderPhotos

WunderBlog® & News

Nearby

Air Quality

  Air Quality AQ Index Pollutant
Not available.

Snow Depth

Station Depth Elevation

Earthquake Activity

City Distance Mag. Time & Date
Minimum magnitude displayed is 2.5.

Coastal Water Temperatures

Place Temperature

Stations

Nearby Weather Stations

Station Location Temp. Windchill Dew Point Humidity Wind Precip. Elev Updated Type
                   

Watches & Warnings

There are currently no watches in effect.